sensor_id;sensor_type;location;lat;lon;timestamp;P1;durP1;ratioP1;P2;durP2;ratioP2
18316;SDS011;9284;52.298;21.164;2022-11-18T00:01:20;23.10;;;10.10;;
18316;SDS011;9284;52.298;21.164;2022-11-18T04:07:51;24.53;;;11.23;;
18316;SDS011;9284;52.298;21.164;2022-11-18T04:10:24;23.73;;;12.37;;
18316;SDS011;9284;52.298;21.164;2022-11-18T04:12:58;28.77;;;12.37;;
18316;SDS011;9284;52.298;21.164;2022-11-18T04:15:33;22.97;;;11.20;;
18316;SDS011;9284;52.298;21.164;2022-11-18T04:18:05;26.73;;;12.23;;
18316;SDS011;9284;52.298;21.164;2022-11-18T04:20:34;23.10;;;10.97;;
18316;SDS011;9284;52.298;21.164;2022-11-18T04:23:04;25.30;;;11.03;;
18316;SDS011;9284;52.298;21.164;2022-11-18T04:25:33;23.07;;;10.87;;
18316;SDS011;9284;52.298;21.164;2022-11-18T04:28:01;22.33;;;10.70;;
18316;SDS011;9284;52.298;21.164;2022-11-18T04:30:30;21.13;;;10.63;;
18316;SDS011;9284;52.298;21.164;2022-11-18T04:32:58;21.77;;;10.47;;
18316;SDS011;9284;52.298;21.164;2022-11-18T04:35:26;21.03;;;9.87;;
18316;SDS011;9284;52.298;21.164;2022-11-18T04:37:55;19.30;;;10.30;;
18316;SDS011;9284;52.298;21.164;2022-11-18T04:40:24;21.83;;;10.27;;
18316;SDS011;9284;52.298;21.164;2022-11-18T04:42:52;21.97;;;10.17;;
18316;SDS011;9284;52.298;21.164;2022-11-18T04:45:20;21.33;;;10.43;;
18316;SDS011;9284;52.298;21.164;2022-11-18T04:47:49;23.43;;;10.23;;
18316;SDS011;9284;52.298;21.164;2022-11-18T04:50:17;19.93;;;9.97;;
18316;SDS011;9284;52.298;21.164;2022-11-18T04:52:45;20.83;;;9.77;;
18316;SDS011;9284;52.298;21.164;2022-11-18T04:55:13;19.80;;;9.50;;
18316;SDS011;9284;52.298;21.164;2022-11-18T04:57:44;20.87;;;9.10;;
18316;SDS011;9284;52.298;21.164;2022-11-18T05:00:12;19.03;;;9.00;;
18316;SDS011;9284;52.298;21.164;2022-11-18T05:02:41;18.93;;;8.83;;
18316;SDS011;9284;52.298;21.164;2022-11-18T05:05:09;16.97;;;8.80;;
18316;SDS011;9284;52.298;21.164;2022-11-18T05:07:37;18.90;;;8.90;;
18316;SDS011;9284;52.298;21.164;2022-11-18T05:10:06;17.23;;;7.83;;
18316;SDS011;9284;52.298;21.164;2022-11-18T05:12:35;18.33;;;8.47;;
18316;SDS011;9284;52.298;21.164;2022-11-18T05:15:16;13.80;;;7.23;;
18316;SDS011;9284;52.298;21.164;2022-11-18T05:17:45;18.50;;;8.60;;
18316;SDS011;9284;52.298;21.164;2022-11-18T05:20:14;14.03;;;7.07;;
18316;SDS011;9284;52.298;21.164;2022-11-18T05:22:42;16.83;;;8.40;;
18316;SDS011;9284;52.298;21.164;2022-11-18T05:25:11;14.97;;;7.60;;
18316;SDS011;9284;52.298;21.164;2022-11-18T05:27:39;15.87;;;7.23;;
18316;SDS011;9284;52.298;21.164;2022-11-18T05:30:08;14.70;;;7.10;;
18316;SDS011;9284;52.298;21.164;2022-11-18T05:32:41;18.20;;;7.60;;
18316;SDS011;9284;52.298;21.164;2022-11-18T05:35:09;14.03;;;6.97;;
18316;SDS011;9284;52.298;21.164;2022-11-18T05:37:37;13.77;;;6.63;;
18316;SDS011;9284;52.298;21.164;2022-11-18T05:40:06;13.40;;;7.07;;
18316;SDS011;9284;52.298;21.164;2022-11-18T05:42:36;13.40;;;6.60;;
18316;SDS011;9284;52.298;21.164;2022-11-18T05:45:22;12.87;;;6.47;;
18316;SDS011;9284;52.298;21.164;2022-11-18T05:47:52;12.27;;;6.13;;
18316;SDS011;9284;52.298;21.164;2022-11-18T05:50:30;13.43;;;6.10;;
18316;SDS011;9284;52.298;21.164;2022-11-18T05:53:00;10.77;;;5.83;;
18316;SDS011;9284;52.298;21.164;2022-11-18T05:55:30;11.30;;;5.90;;
18316;SDS011;9284;52.298;21.164;2022-11-18T05:58:03;13.57;;;6.33;;
18316;SDS011;9284;52.298;21.164;2022-11-18T06:00:32;10.67;;;6.00;;
18316;SDS011;9284;52.298;21.164;2022-11-18T06:03:02;10.30;;;6.17;;
18316;SDS011;9284;52.298;21.164;2022-11-18T06:05:37;10.63;;;5.30;;
18316;SDS011;9284;52.298;21.164;2022-11-18T06:08:06;11.10;;;5.97;;
18316;SDS011;9284;52.298;21.164;2022-11-18T06:10:37;10.37;;;5.60;;
18316;SDS011;9284;52.298;21.164;2022-11-18T06:13:08;10.37;;;5.37;;
18316;SDS011;9284;52.298;21.164;2022-11-18T06:15:43;10.27;;;5.63;;
18316;SDS011;9284;52.298;21.164;2022-11-18T06:18:15;11.27;;;5.73;;
18316;SDS011;9284;52.298;21.164;2022-11-18T06:20:48;12.07;;;5.97;;
18316;SDS011;9284;52.298;21.164;2022-11-18T06:23:19;15.17;;;6.77;;
18316;SDS011;9284;52.298;21.164;2022-11-18T06:25:48;13.50;;;6.27;;
18316;SDS011;9284;52.298;21.164;2022-11-18T06:28:16;13.07;;;6.83;;
18316;SDS011;9284;52.298;21.164;2022-11-18T06:30:45;11.60;;;6.30;;
18316;SDS011;9284;52.298;21.164;2022-11-18T06:33:15;13.97;;;6.43;;
18316;SDS011;9284;52.298;21.164;2022-11-18T06:35:43;13.50;;;6.30;;
18316;SDS011;9284;52.298;21.164;2022-11-18T06:38:11;12.77;;;6.67;;
18316;SDS011;9284;52.298;21.164;2022-11-18T06:40:40;15.23;;;6.60;;
18316;SDS011;9284;52.298;21.164;2022-11-18T06:43:10;13.30;;;6.67;;
18316;SDS011;9284;52.298;21.164;2022-11-18T06:45:57;11.97;;;6.47;;
18316;SDS011;9284;52.298;21.164;2022-11-18T06:48:44;16.63;;;6.60;;
18316;SDS011;9284;52.298;21.164;2022-11-18T06:51:12;13.80;;;6.00;;
18316;SDS011;9284;52.298;21.164;2022-11-18T06:53:41;13.60;;;6.53;;
18316;SDS011;9284;52.298;21.164;2022-11-18T06:56:10;13.90;;;6.80;;
18316;SDS011;9284;52.298;21.164;2022-11-18T06:58:39;11.27;;;6.43;;
18316;SDS011;9284;52.298;21.164;2022-11-18T07:01:08;14.17;;;7.37;;
18316;SDS011;9284;52.298;21.164;2022-11-18T07:03:37;11.73;;;6.13;;
18316;SDS011;9284;52.298;21.164;2022-11-18T07:06:07;14.60;;;6.47;;
18316;SDS011;9284;52.298;21.164;2022-11-18T07:08:37;12.50;;;6.67;;
18316;SDS011;9284;52.298;21.164;2022-11-18T07:11:07;12.47;;;6.43;;
18316;SDS011;9284;52.298;21.164;2022-11-18T07:13:37;13.97;;;6.43;;
18316;SDS011;9284;52.298;21.164;2022-11-18T07:16:09;13.20;;;6.07;;
18316;SDS011;9284;52.298;21.164;2022-11-18T07:18:39;13.00;;;5.93;;
18316;SDS011;9284;52.298;21.164;2022-11-18T07:21:10;12.60;;;6.57;;
18316;SDS011;9284;52.298;21.164;2022-11-18T07:23:40;11.37;;;5.70;;
18316;SDS011;9284;52.298;21.164;2022-11-18T07:26:08;11.93;;;5.83;;
18316;SDS011;9284;52.298;21.164;2022-11-18T07:28:37;11.10;;;5.97;;
18316;SDS011;9284;52.298;21.164;2022-11-18T07:31:06;12.60;;;6.30;;
18316;SDS011;9284;52.298;21.164;2022-11-18T07:33:35;12.60;;;6.00;;
18316;SDS011;9284;52.298;21.164;2022-11-18T07:36:05;11.67;;;6.30;;
18316;SDS011;9284;52.298;21.164;2022-11-18T07:38:36;12.67;;;6.17;;
18316;SDS011;9284;52.298;21.164;2022-11-18T07:41:05;14.03;;;6.40;;
18316;SDS011;9284;52.298;21.164;2022-11-18T07:43:35;14.70;;;6.87;;
18316;SDS011;9284;52.298;21.164;2022-11-18T07:46:08;11.23;;;6.07;;
18316;SDS011;9284;52.298;21.164;2022-11-18T07:48:38;13.10;;;6.77;;
18316;SDS011;9284;52.298;21.164;2022-11-18T07:51:07;13.80;;;6.30;;
18316;SDS011;9284;52.298;21.164;2022-11-18T07:53:37;12.37;;;5.43;;
18316;SDS011;9284;52.298;21.164;2022-11-18T07:56:05;12.03;;;5.10;;
18316;SDS011;9284;52.298;21.164;2022-11-18T07:58:35;12.07;;;5.47;;
18316;SDS011;9284;52.298;21.164;2022-11-18T08:01:07;8.93;;;5.07;;
18316;SDS011;9284;52.298;21.164;2022-11-18T08:03:36;12.70;;;5.67;;
18316;SDS011;9284;52.298;21.164;2022-11-18T08:06:05;12.70;;;5.60;;
18316;SDS011;9284;52.298;21.164;2022-11-18T08:08:36;8.20;;;4.60;;
18316;SDS011;9284;52.298;21.164;2022-11-18T08:11:05;9.80;;;5.40;;
18316;SDS011;9284;52.298;21.164;2022-11-18T08:13:36;9.83;;;5.07;;
18316;SDS011;9284;52.298;21.164;2022-11-18T08:16:10;8.60;;;4.83;;
18316;SDS011;9284;52.298;21.164;2022-11-18T08:18:40;13.03;;;5.10;;
18316;SDS011;9284;52.298;21.164;2022-11-18T08:21:09;8.87;;;4.70;;
18316;SDS011;9284;52.298;21.164;2022-11-18T08:23:38;6.57;;;3.77;;
18316;SDS011;9284;52.298;21.164;2022-11-18T08:26:08;6.90;;;3.80;;
18316;SDS011;9284;52.298;21.164;2022-11-18T08:28:38;8.00;;;3.83;;
18316;SDS011;9284;52.298;21.164;2022-11-18T08:31:08;5.87;;;3.70;;
18316;SDS011;9284;52.298;21.164;2022-11-18T08:33:37;6.37;;;3.83;;
18316;SDS011;9284;52.298;21.164;2022-11-18T08:36:06;6.57;;;3.93;;
18316;SDS011;9284;52.298;21.164;2022-11-18T08:38:36;6.27;;;3.60;;
18316;SDS011;9284;52.298;21.164;2022-11-18T08:41:05;6.87;;;3.80;;
18316;SDS011;9284;52.298;21.164;2022-11-18T08:43:34;6.33;;;3.67;;
18316;SDS011;9284;52.298;21.164;2022-11-18T08:46:02;7.07;;;4.10;;
18316;SDS011;9284;52.298;21.164;2022-11-18T08:48:30;5.93;;;3.57;;
18316;SDS011;9284;52.298;21.164;2022-11-18T08:50:59;7.07;;;4.03;;
18316;SDS011;9284;52.298;21.164;2022-11-18T08:53:28;7.47;;;3.57;;
18316;SDS011;9284;52.298;21.164;2022-11-18T08:55:57;7.40;;;3.87;;
18316;SDS011;9284;52.298;21.164;2022-11-18T08:58:28;8.07;;;3.80;;
18316;SDS011;9284;52.298;21.164;2022-11-18T09:00:56;6.70;;;3.70;;
18316;SDS011;9284;52.298;21.164;2022-11-18T09:03:25;7.23;;;4.00;;
18316;SDS011;9284;52.298;21.164;2022-11-18T09:06:03;9.27;;;4.30;;
18316;SDS011;9284;52.298;21.164;2022-11-18T09:08:34;6.80;;;3.90;;
18316;SDS011;9284;52.298;21.164;2022-11-18T09:11:04;6.87;;;3.60;;
18316;SDS011;9284;52.298;21.164;2022-11-18T09:13:35;6.23;;;3.50;;
18316;SDS011;9284;52.298;21.164;2022-11-18T09:16:23;11.00;;;4.03;;
18316;SDS011;9284;52.298;21.164;2022-11-18T09:18:54;6.93;;;3.93;;
18316;SDS011;9284;52.298;21.164;2022-11-18T09:21:23;8.60;;;4.20;;
18316;SDS011;9284;52.298;21.164;2022-11-18T09:23:52;6.70;;;3.70;;
18316;SDS011;9284;52.298;21.164;2022-11-18T09:26:21;8.17;;;4.20;;
18316;SDS011;9284;52.298;21.164;2022-11-18T09:28:53;9.17;;;4.67;;
18316;SDS011;9284;52.298;21.164;2022-11-18T09:31:21;11.73;;;5.03;;
18316;SDS011;9284;52.298;21.164;2022-11-18T09:33:49;8.77;;;4.27;;
18316;SDS011;9284;52.298;21.164;2022-11-18T09:36:18;7.30;;;4.00;;
18316;SDS011;9284;52.298;21.164;2022-11-18T09:38:49;5.20;;;3.60;;
18316;SDS011;9284;52.298;21.164;2022-11-18T09:41:25;8.17;;;4.30;;
18316;SDS011;9284;52.298;21.164;2022-11-18T09:44:24;8.00;;;4.50;;
18316;SDS011;9284;52.298;21.164;2022-11-18T09:47:11;11.23;;;4.60;;
18316;SDS011;9284;52.298;21.164;2022-11-18T09:49:47;7.37;;;4.30;;
18316;SDS011;9284;52.298;21.164;2022-11-18T09:52:16;8.90;;;4.20;;
18316;SDS011;9284;52.298;21.164;2022-11-18T09:54:48;12.13;;;4.57;;
18316;SDS011;9284;52.298;21.164;2022-11-18T09:57:18;8.37;;;4.20;;
18316;SDS011;9284;52.298;21.164;2022-11-18T09:59:51;6.27;;;3.70;;
18316;SDS011;9284;52.298;21.164;2022-11-18T10:02:28;8.20;;;4.67;;
18316;SDS011;9284;52.298;21.164;2022-11-18T10:05:12;9.47;;;4.80;;
18316;SDS011;9284;52.298;21.164;2022-11-18T10:07:44;8.73;;;3.90;;
18316;SDS011;9284;52.298;21.164;2022-11-18T10:10:18;8.13;;;4.30;;
18316;SDS011;9284;52.298;21.164;2022-11-18T10:12:51;6.37;;;4.40;;
18316;SDS011;9284;52.298;21.164;2022-11-18T10:15:31;8.80;;;4.27;;
18316;SDS011;9284;52.298;21.164;2022-11-18T10:18:07;9.23;;;4.23;;
18316;SDS011;9284;52.298;21.164;2022-11-18T10:21:10;8.43;;;4.27;;
18316;SDS011;9284;52.298;21.164;2022-11-18T10:23:48;6.93;;;3.50;;
18316;SDS011;9284;52.298;21.164;2022-11-18T10:26:32;13.30;;;4.73;;
18316;SDS011;9284;52.298;21.164;2022-11-18T10:29:02;9.83;;;4.97;;
18316;SDS011;9284;52.298;21.164;2022-11-18T10:31:35;9.23;;;4.33;;
18316;SDS011;9284;52.298;21.164;2022-11-18T10:34:05;8.63;;;4.53;;
18316;SDS011;9284;52.298;21.164;2022-11-18T10:36:37;8.20;;;4.37;;
18316;SDS011;9284;52.298;21.164;2022-11-18T10:39:09;9.03;;;4.63;;
18316;SDS011;9284;52.298;21.164;2022-11-18T10:41:44;8.60;;;4.93;;
18316;SDS011;9284;52.298;21.164;2022-11-18T10:44:26;7.20;;;4.30;;
18316;SDS011;9284;52.298;21.164;2022-11-18T10:47:20;8.27;;;3.67;;
18316;SDS011;9284;52.298;21.164;2022-11-18T10:49:54;8.47;;;4.20;;
18316;SDS011;9284;52.298;21.164;2022-11-18T10:52:24;10.70;;;5.43;;
18316;SDS011;9284;52.298;21.164;2022-11-18T10:57:53;7.83;;;4.53;;
18316;SDS011;9284;52.298;21.164;2022-11-18T11:06:27;7.40;;;4.30;;
18316;SDS011;9284;52.298;21.164;2022-11-18T11:09:01;10.23;;;3.67;;
18316;SDS011;9284;52.298;21.164;2022-11-18T11:11:33;8.03;;;4.27;;
18316;SDS011;9284;52.298;21.164;2022-11-18T11:14:16;10.40;;;4.80;;
18316;SDS011;9284;52.298;21.164;2022-11-18T11:16:56;10.07;;;4.57;;
18316;SDS011;9284;52.298;21.164;2022-11-18T11:19:52;8.30;;;4.30;;
18316;SDS011;9284;52.298;21.164;2022-11-18T11:22:28;7.33;;;3.93;;
18316;SDS011;9284;52.298;21.164;2022-11-18T11:24:56;8.40;;;4.70;;
18316;SDS011;9284;52.298;21.164;2022-11-18T11:27:42;8.80;;;4.60;;
18316;SDS011;9284;52.298;21.164;2022-11-18T11:30:36;6.60;;;3.50;;
18316;SDS011;9284;52.298;21.164;2022-11-18T11:33:18;9.03;;;4.30;;
18316;SDS011;9284;52.298;21.164;2022-11-18T11:36:02;6.07;;;3.60;;
18316;SDS011;9284;52.298;21.164;2022-11-18T11:38:41;4.50;;;3.27;;
18316;SDS011;9284;52.298;21.164;2022-11-18T11:41:28;5.20;;;2.90;;
18316;SDS011;9284;52.298;21.164;2022-11-18T11:44:11;6.33;;;3.30;;
18316;SDS011;9284;52.298;21.164;2022-11-18T11:46:53;5.10;;;2.93;;
18316;SDS011;9284;52.298;21.164;2022-11-18T11:49:51;7.57;;;3.03;;
18316;SDS011;9284;52.298;21.164;2022-11-18T11:52:24;7.30;;;3.57;;
18316;SDS011;9284;52.298;21.164;2022-11-18T11:55:03;6.10;;;3.70;;
18316;SDS011;9284;52.298;21.164;2022-11-18T11:57:42;9.80;;;4.57;;
18316;SDS011;9284;52.298;21.164;2022-11-18T12:00:25;7.80;;;3.80;;
18316;SDS011;9284;52.298;21.164;2022-11-18T12:03:03;6.27;;;3.60;;
18316;SDS011;9284;52.298;21.164;2022-11-18T12:05:40;6.30;;;3.40;;
18316;SDS011;9284;52.298;21.164;2022-11-18T12:08:10;8.33;;;3.17;;
18316;SDS011;9284;52.298;21.164;2022-11-18T12:10:43;6.00;;;3.43;;
18316;SDS011;9284;52.298;21.164;2022-11-18T12:13:18;11.30;;;4.37;;
18316;SDS011;9284;52.298;21.164;2022-11-18T12:15:56;7.03;;;3.90;;
18316;SDS011;9284;52.298;21.164;2022-11-18T12:18:45;6.33;;;3.50;;
18316;SDS011;9284;52.298;21.164;2022-11-18T12:24:28;10.27;;;3.80;;
18316;SDS011;9284;52.298;21.164;2022-11-18T12:26:58;5.93;;;3.87;;
18316;SDS011;9284;52.298;21.164;2022-11-18T12:29:30;7.20;;;3.93;;
18316;SDS011;9284;52.298;21.164;2022-11-18T12:32:15;6.20;;;3.73;;
18316;SDS011;9284;52.298;21.164;2022-11-18T12:35:00;6.83;;;3.67;;
18316;SDS011;9284;52.298;21.164;2022-11-18T12:37:43;4.90;;;3.07;;
18316;SDS011;9284;52.298;21.164;2022-11-18T12:43:01;5.40;;;3.33;;
18316;SDS011;9284;52.298;21.164;2022-11-18T12:48:26;7.97;;;3.80;;
18316;SDS011;9284;52.298;21.164;2022-11-18T12:51:00;6.60;;;3.83;;
18316;SDS011;9284;52.298;21.164;2022-11-18T12:53:31;6.63;;;3.53;;
18316;SDS011;9284;52.298;21.164;2022-11-18T12:56:11;6.77;;;3.63;;
18316;SDS011;9284;52.298;21.164;2022-11-18T12:58:49;6.33;;;3.63;;
18316;SDS011;9284;52.298;21.164;2022-11-18T13:01:19;6.47;;;3.83;;
18316;SDS011;9284;52.298;21.164;2022-11-18T13:03:49;5.93;;;3.50;;
18316;SDS011;9284;52.298;21.164;2022-11-18T13:06:23;7.03;;;3.10;;
18316;SDS011;9284;52.298;21.164;2022-11-18T13:08:53;5.77;;;3.43;;
18316;SDS011;9284;52.298;21.164;2022-11-18T13:11:26;6.63;;;3.23;;
18316;SDS011;9284;52.298;21.164;2022-11-18T13:14:13;5.37;;;3.13;;
18316;SDS011;9284;52.298;21.164;2022-11-18T13:17:00;5.53;;;3.10;;
18316;SDS011;9284;52.298;21.164;2022-11-18T13:19:54;6.20;;;3.73;;
18316;SDS011;9284;52.298;21.164;2022-11-18T13:22:23;5.80;;;4.00;;
18316;SDS011;9284;52.298;21.164;2022-11-18T13:25:21;8.80;;;3.87;;
18316;SDS011;9284;52.298;21.164;2022-11-18T13:27:53;7.33;;;4.27;;
18316;SDS011;9284;52.298;21.164;2022-11-18T13:30:27;6.33;;;4.07;;
18316;SDS011;9284;52.298;21.164;2022-11-18T13:32:58;8.63;;;4.10;;
18316;SDS011;9284;52.298;21.164;2022-11-18T13:35:27;9.30;;;3.80;;
18316;SDS011;9284;52.298;21.164;2022-11-18T13:37:56;7.23;;;4.47;;
18316;SDS011;9284;52.298;21.164;2022-11-18T13:40:26;9.10;;;4.40;;
18316;SDS011;9284;52.298;21.164;2022-11-18T13:42:58;7.33;;;3.83;;
18316;SDS011;9284;52.298;21.164;2022-11-18T13:45:26;8.50;;;4.50;;
18316;SDS011;9284;52.298;21.164;2022-11-18T13:47:57;9.57;;;4.43;;
18316;SDS011;9284;52.298;21.164;2022-11-18T13:50:30;8.87;;;4.43;;
18316;SDS011;9284;52.298;21.164;2022-11-18T13:53:07;8.93;;;4.63;;
18316;SDS011;9284;52.298;21.164;2022-11-18T13:55:44;8.73;;;5.03;;
18316;SDS011;9284;52.298;21.164;2022-11-18T13:58:25;14.80;;;5.13;;
18316;SDS011;9284;52.298;21.164;2022-11-18T14:01:20;12.33;;;5.60;;
18316;SDS011;9284;52.298;21.164;2022-11-18T14:03:51;10.07;;;5.83;;
18316;SDS011;9284;52.298;21.164;2022-11-18T14:06:22;10.60;;;5.67;;
18316;SDS011;9284;52.298;21.164;2022-11-18T14:09:02;12.70;;;5.90;;
18316;SDS011;9284;52.298;21.164;2022-11-18T14:11:36;10.53;;;6.17;;
18316;SDS011;9284;52.298;21.164;2022-11-18T14:14:07;13.43;;;6.87;;
18316;SDS011;9284;52.298;21.164;2022-11-18T14:16:36;14.93;;;7.27;;
18316;SDS011;9284;52.298;21.164;2022-11-18T14:19:06;15.17;;;7.57;;
18316;SDS011;9284;52.298;21.164;2022-11-18T14:21:52;11.47;;;5.93;;
18316;SDS011;9284;52.298;21.164;2022-11-18T14:24:24;16.90;;;7.90;;
18316;SDS011;9284;52.298;21.164;2022-11-18T14:26:53;16.40;;;7.23;;
18316;SDS011;9284;52.298;21.164;2022-11-18T14:29:23;12.07;;;6.77;;
18316;SDS011;9284;52.298;21.164;2022-11-18T14:34:40;14.87;;;8.40;;
18316;SDS011;9284;52.298;21.164;2022-11-18T14:37:10;15.07;;;7.30;;
18316;SDS011;9284;52.298;21.164;2022-11-18T14:39:39;16.03;;;8.50;;
18316;SDS011;9284;52.298;21.164;2022-11-18T14:42:09;16.03;;;8.43;;
18316;SDS011;9284;52.298;21.164;2022-11-18T14:44:40;14.30;;;7.87;;
18316;SDS011;9284;52.298;21.164;2022-11-18T14:47:14;17.20;;;8.53;;
18316;SDS011;9284;52.298;21.164;2022-11-18T14:49:49;14.90;;;8.50;;
18316;SDS011;9284;52.298;21.164;2022-11-18T14:52:17;14.57;;;8.47;;
18316;SDS011;9284;52.298;21.164;2022-11-18T14:54:45;21.03;;;8.43;;
18316;SDS011;9284;52.298;21.164;2022-11-18T14:57:14;13.53;;;6.87;;
18316;SDS011;9284;52.298;21.164;2022-11-18T14:59:45;16.33;;;8.10;;
18316;SDS011;9284;52.298;21.164;2022-11-18T15:02:14;13.37;;;7.37;;
18316;SDS011;9284;52.298;21.164;2022-11-18T15:04:43;15.60;;;7.60;;
18316;SDS011;9284;52.298;21.164;2022-11-18T15:07:12;20.57;;;7.53;;
18316;SDS011;9284;52.298;21.164;2022-11-18T15:09:49;16.20;;;6.67;;
18316;SDS011;9284;52.298;21.164;2022-11-18T15:12:17;15.53;;;7.57;;
18316;SDS011;9284;52.298;21.164;2022-11-18T15:14:47;10.83;;;5.67;;
18316;SDS011;9284;52.298;21.164;2022-11-18T15:17:18;16.10;;;8.40;;
18316;SDS011;9284;52.298;21.164;2022-11-18T15:19:47;15.17;;;7.60;;
18316;SDS011;9284;52.298;21.164;2022-11-18T15:22:16;15.87;;;6.70;;
18316;SDS011;9284;52.298;21.164;2022-11-18T15:24:44;15.73;;;8.07;;
18316;SDS011;9284;52.298;21.164;2022-11-18T15:27:12;16.20;;;8.57;;
18316;SDS011;9284;52.298;21.164;2022-11-18T15:29:40;17.80;;;8.20;;
18316;SDS011;9284;52.298;21.164;2022-11-18T15:32:11;15.67;;;8.87;;
18316;SDS011;9284;52.298;21.164;2022-11-18T15:34:39;18.00;;;8.40;;
18316;SDS011;9284;52.298;21.164;2022-11-18T15:37:09;18.83;;;8.37;;
18316;SDS011;9284;52.298;21.164;2022-11-18T15:39:38;15.97;;;8.53;;
18316;SDS011;9284;52.298;21.164;2022-11-18T15:42:06;18.13;;;8.80;;
18316;SDS011;9284;52.298;21.164;2022-11-18T15:44:34;15.63;;;8.43;;
18316;SDS011;9284;52.298;21.164;2022-11-18T15:47:03;20.50;;;8.77;;
18316;SDS011;9284;52.298;21.164;2022-11-18T15:49:33;18.30;;;9.60;;
18316;SDS011;9284;52.298;21.164;2022-11-18T15:52:01;17.97;;;8.70;;
18316;SDS011;9284;52.298;21.164;2022-11-18T15:54:29;21.43;;;9.20;;
18316;SDS011;9284;52.298;21.164;2022-11-18T15:56:57;17.20;;;9.13;;
18316;SDS011;9284;52.298;21.164;2022-11-18T15:59:26;19.17;;;9.10;;
18316;SDS011;9284;52.298;21.164;2022-11-18T16:01:54;19.33;;;9.10;;
18316;SDS011;9284;52.298;21.164;2022-11-18T16:04:23;18.70;;;10.33;;
18316;SDS011;9284;52.298;21.164;2022-11-18T16:06:54;18.80;;;9.70;;
18316;SDS011;9284;52.298;21.164;2022-11-18T16:09:23;20.60;;;9.60;;
18316;SDS011;9284;52.298;21.164;2022-11-18T16:12:11;21.70;;;10.77;;
18316;SDS011;9284;52.298;21.164;2022-11-18T16:14:56;24.60;;;11.47;;
18316;SDS011;9284;52.298;21.164;2022-11-18T16:17:39;21.80;;;10.70;;
18316;SDS011;9284;52.298;21.164;2022-11-18T16:20:08;22.67;;;11.80;;
18316;SDS011;9284;52.298;21.164;2022-11-18T16:22:38;22.27;;;10.47;;
18316;SDS011;9284;52.298;21.164;2022-11-18T16:25:07;20.03;;;10.50;;
18316;SDS011;9284;52.298;21.164;2022-11-18T16:27:35;20.73;;;9.67;;
18316;SDS011;9284;52.298;21.164;2022-11-18T16:30:04;21.10;;;10.67;;
18316;SDS011;9284;52.298;21.164;2022-11-18T16:32:32;22.47;;;11.40;;
18316;SDS011;9284;52.298;21.164;2022-11-18T16:34:59;22.20;;;10.43;;
18316;SDS011;9284;52.298;21.164;2022-11-18T16:37:28;20.63;;;9.63;;
18316;SDS011;9284;52.298;21.164;2022-11-18T16:39:58;18.73;;;9.90;;
18316;SDS011;9284;52.298;21.164;2022-11-18T16:42:27;21.40;;;9.83;;
18316;SDS011;9284;52.298;21.164;2022-11-18T16:44:55;20.80;;;10.00;;
18316;SDS011;9284;52.298;21.164;2022-11-18T16:47:23;22.70;;;9.77;;
18316;SDS011;9284;52.298;21.164;2022-11-18T16:49:54;22.83;;;9.57;;
18316;SDS011;9284;52.298;21.164;2022-11-18T16:52:22;17.53;;;8.70;;
18316;SDS011;9284;52.298;21.164;2022-11-18T16:54:51;19.67;;;9.00;;
18316;SDS011;9284;52.298;21.164;2022-11-18T16:57:20;18.47;;;8.77;;
18316;SDS011;9284;52.298;21.164;2022-11-18T16:59:49;18.43;;;9.03;;
18316;SDS011;9284;52.298;21.164;2022-11-18T17:02:17;18.43;;;8.87;;
18316;SDS011;9284;52.298;21.164;2022-11-18T17:04:46;19.50;;;9.73;;
18316;SDS011;9284;52.298;21.164;2022-11-18T17:07:14;21.27;;;10.07;;
18316;SDS011;9284;52.298;21.164;2022-11-18T17:09:43;17.50;;;9.23;;
18316;SDS011;9284;52.298;21.164;2022-11-18T17:12:11;18.80;;;8.93;;
18316;SDS011;9284;52.298;21.164;2022-11-18T17:14:41;22.10;;;9.90;;
18316;SDS011;9284;52.298;21.164;2022-11-18T17:17:09;19.10;;;9.10;;
18316;SDS011;9284;52.298;21.164;2022-11-18T17:19:37;18.37;;;9.03;;
18316;SDS011;9284;52.298;21.164;2022-11-18T17:22:05;20.97;;;8.83;;
18316;SDS011;9284;52.298;21.164;2022-11-18T17:24:33;20.77;;;9.00;;
18316;SDS011;9284;52.298;21.164;2022-11-18T17:27:02;20.37;;;9.27;;
18316;SDS011;9284;52.298;21.164;2022-11-18T17:29:30;14.73;;;8.00;;
18316;SDS011;9284;52.298;21.164;2022-11-18T17:32:01;20.13;;;8.50;;
18316;SDS011;9284;52.298;21.164;2022-11-18T17:34:29;17.80;;;7.97;;
18316;SDS011;9284;52.298;21.164;2022-11-18T17:36:57;17.10;;;7.73;;
18316;SDS011;9284;52.298;21.164;2022-11-18T17:39:32;16.23;;;7.50;;
18316;SDS011;9284;52.298;21.164;2022-11-18T17:42:00;15.60;;;8.30;;
18316;SDS011;9284;52.298;21.164;2022-11-18T17:44:40;16.40;;;7.97;;
18316;SDS011;9284;52.298;21.164;2022-11-18T17:47:10;22.50;;;8.30;;
18316;SDS011;9284;52.298;21.164;2022-11-18T17:49:38;17.17;;;7.77;;
18316;SDS011;9284;52.298;21.164;2022-11-18T17:52:06;17.17;;;8.17;;
18316;SDS011;9284;52.298;21.164;2022-11-18T17:54:34;18.57;;;8.77;;
18316;SDS011;9284;52.298;21.164;2022-11-18T17:57:03;16.27;;;7.53;;
18316;SDS011;9284;52.298;21.164;2022-11-18T17:59:31;15.33;;;7.57;;
18316;SDS011;9284;52.298;21.164;2022-11-18T18:01:59;14.53;;;7.47;;
18316;SDS011;9284;52.298;21.164;2022-11-18T18:04:29;15.80;;;7.90;;
18316;SDS011;9284;52.298;21.164;2022-11-18T18:06:58;16.50;;;8.63;;
18316;SDS011;9284;52.298;21.164;2022-11-18T18:09:26;15.73;;;8.03;;
18316;SDS011;9284;52.298;21.164;2022-11-18T18:11:57;20.50;;;9.60;;
18316;SDS011;9284;52.298;21.164;2022-11-18T18:14:26;17.20;;;8.53;;
18316;SDS011;9284;52.298;21.164;2022-11-18T18:16:53;21.30;;;10.30;;
18316;SDS011;9284;52.298;21.164;2022-11-18T18:19:21;24.40;;;10.73;;
18316;SDS011;9284;52.298;21.164;2022-11-18T18:21:51;20.27;;;9.13;;
18316;SDS011;9284;52.298;21.164;2022-11-18T18:24:19;32.07;;;13.53;;
18316;SDS011;9284;52.298;21.164;2022-11-18T18:26:51;47.27;;;21.03;;
18316;SDS011;9284;52.298;21.164;2022-11-18T18:29:19;34.97;;;15.17;;
18316;SDS011;9284;52.298;21.164;2022-11-18T18:31:47;28.92;;;13.13;;
18316;SDS011;9284;52.298;21.164;2022-11-18T18:34:16;26.10;;;11.50;;
18316;SDS011;9284;52.298;21.164;2022-11-18T18:36:48;20.17;;;9.93;;
18316;SDS011;9284;52.298;21.164;2022-11-18T18:39:17;37.30;;;15.13;;
18316;SDS011;9284;52.298;21.164;2022-11-18T18:41:47;26.63;;;12.07;;
18316;SDS011;9284;52.298;21.164;2022-11-18T18:44:16;29.43;;;13.70;;
18316;SDS011;9284;52.298;21.164;2022-11-18T18:46:45;27.40;;;13.40;;
18316;SDS011;9284;52.298;21.164;2022-11-18T18:49:13;25.93;;;9.83;;
18316;SDS011;9284;52.298;21.164;2022-11-18T18:51:46;19.83;;;9.83;;
18316;SDS011;9284;52.298;21.164;2022-11-18T18:54:16;31.90;;;16.00;;
18316;SDS011;9284;52.298;21.164;2022-11-18T18:56:50;20.37;;;9.37;;
18316;SDS011;9284;52.298;21.164;2022-11-18T18:59:18;24.83;;;11.93;;
18316;SDS011;9284;52.298;21.164;2022-11-18T19:01:47;29.47;;;12.20;;
18316;SDS011;9284;52.298;21.164;2022-11-18T19:04:16;20.40;;;10.87;;
18316;SDS011;9284;52.298;21.164;2022-11-18T19:06:45;20.93;;;9.50;;
18316;SDS011;9284;52.298;21.164;2022-11-18T19:09:26;15.77;;;8.10;;
18316;SDS011;9284;52.298;21.164;2022-11-18T19:11:54;22.93;;;11.47;;
18316;SDS011;9284;52.298;21.164;2022-11-18T19:14:40;32.93;;;14.70;;
18316;SDS011;9284;52.298;21.164;2022-11-18T19:17:09;27.23;;;11.90;;
18316;SDS011;9284;52.298;21.164;2022-11-18T19:20:04;25.33;;;11.67;;
18316;SDS011;9284;52.298;21.164;2022-11-18T19:22:48;24.47;;;11.37;;
18316;SDS011;9284;52.298;21.164;2022-11-18T19:25:18;25.53;;;12.30;;
18316;SDS011;9284;52.298;21.164;2022-11-18T19:27:46;21.07;;;10.50;;
18316;SDS011;9284;52.298;21.164;2022-11-18T19:30:14;36.27;;;15.60;;